CheckWX is a tool to help pilots better visualize weather data.  It is not intended as a substitute for an official pre-flight weather briefing.

09:40:31 UTC

KPRC METAR
Ernest A Love Field Airport
Prescott, Arizona, USA
Current

48 mins ago

KPRC 250853Z AUTO 21008KT 10SM CLR 22/13 A3020 RMK AO2 SLP129 T02170133 58000
Observed
Aug-25 @ 08:53 UTC
Wind
  • 210° at 8 KTS
Visibility
10 SM
Flight Rules
VFR
Cloud Levels
  • Clear skies
Temperature
22°C / 72°F
Dewpoint
13°C / 55°F
Humidity
57%
Altimeter
30.2" Hg
Pressure
1022.72 hPa
Previous

2 hours ago

KPRC 250753Z AUTO 19007KT 10SM CLR 23/14 A3020 RMK AO2 SLP130 T02280139
Observed
Aug-25 @ 07:53 UTC
Wind
  • 190° at 7 KTS
Visibility
10 SM
Flight Rules
VFR
Cloud Levels
  • Clear skies
Temperature
23°C / 73°F
Dewpoint
14°C / 57°F
Humidity
57%
Altimeter
30.2" Hg
Pressure
1022.72 hPa
Previous

3 hours ago

KPRC 250653Z AUTO 18005KT 10SM CLR 24/14 A3020 RMK AO2 SLP130 T02390139 403220178
Observed
Aug-25 @ 06:53 UTC
Wind
  • 180° at 5 KTS
Visibility
10 SM
Flight Rules
VFR
Cloud Levels
  • Clear skies
Temperature
24°C / 75°F
Dewpoint
14°C / 57°F
Humidity
54%
Altimeter
30.2" Hg
Pressure
1022.72 hPa